Time;durP1;ratioP1;P1;durP2;ratioP2;P2;SDS_P1;SDS_P2;PMS_P1;PMS_P2;Temp;Humidity;BMP_temperature;BMP_pressure;BME280_temperature;BME280_humidity;BME280_pressure;Samples;Min_cycle;Max_cycle;Signal;HPM_P1;HPM_P2
2023/09/21 00:01:13;;;;;;;1.05;0.40;;;18.00;89.10;;;;;;4991328;28;20056;-83
2023/09/21 00:03:40;;;;;;;1.95;0.40;;;18.00;89.20;;;;;;5019604;28;20060;-82
2023/09/21 00:06:13;;;;;;;2.47;0.40;;;17.90;89.20;;;;;;5052949;28;20055;-82
2023/09/21 00:08:41;;;;;;;0.80;0.38;;;17.90;89.30;;;;;;5007633;28;20551;-82
2023/09/21 00:11:09;;;;;;;1.20;0.45;;;17.90;89.40;;;;;;5000283;28;20122;-82
2023/09/21 00:13:39;;;;;;;0.93;0.47;;;17.90;89.50;;;;;;5033797;28;20087;-82
2023/09/21 00:16:14;;;;;;;1.17;0.40;;;17.90;89.50;;;;;;5043875;28;20037;-82
2023/09/21 00:18:43;;;;;;;1.98;0.30;;;17.90;89.40;;;;;;5052582;28;20098;-82
2023/09/21 00:21:14;;;;;;;2.00;0.60;;;17.80;89.40;;;;;;5048861;28;20052;-82
2023/09/21 00:23:43;;;;;;;1.08;0.50;;;17.80;89.50;;;;;;5017101;28;20499;-82
2023/09/21 00:26:11;;;;;;;1.30;0.50;;;17.80;89.50;;;;;;5010739;28;20049;-82
2023/09/21 00:28:43;;;;;;;1.52;0.50;;;17.80;89.50;;;;;;5032753;28;20517;-83
2023/09/21 00:31:12;;;;;;;0.93;0.50;;;17.80;89.50;;;;;;5016958;28;20045;-83
2023/09/21 00:33:41;;;;;;;1.80;0.40;;;17.70;89.40;;;;;;5032550;28;20033;-82
2023/09/21 00:36:16;;;;;;;1.95;0.55;;;17.70;89.40;;;;;;5035741;28;20060;-82
2023/09/21 00:38:47;;;;;;;3.08;0.47;;;17.70;89.40;;;;;;5027361;28;20096;-82
2023/09/21 00:41:20;;;;;;;1.40;0.50;;;17.70;89.40;;;;;;5017064;28;20041;-82
2023/09/21 00:43:51;;;;;;;2.10;0.50;;;17.70;89.50;;;;;;5021953;28;20053;-82
2023/09/21 00:46:21;;;;;;;1.40;0.50;;;17.70;89.30;;;;;;5041093;28;20053;-82
2023/09/21 00:48:56;;;;;;;;;;;17.70;89.30;;;;;;4997346;28;20052;-84
2023/09/21 00:51:24;;;;;;;1.33;0.50;;;17.70;89.40;;;;;;5014700;28;19925;-84
2023/09/21 00:53:56;;;;;;;1.05;0.38;;;17.70;89.40;;;;;;5037143;28;20056;-84
2023/09/21 00:56:23;;;;;;;2.17;0.40;;;17.70;89.30;;;;;;5032636;28;20061;-84
2023/09/21 00:58:53;;;;;;;2.03;0.40;;;17.70;89.40;;;;;;5035411;28;20106;-84
2023/09/21 01:01:27;;;;;;;1.52;0.47;;;17.70;89.30;;;;;;5008469;28;20053;-84
2023/09/21 01:04:06;;;;;;;1.42;0.40;;;17.70;89.40;;;;;;5022816;28;20084;-84
2023/09/21 01:06:37;;;;;;;0.95;0.30;;;17.70;89.30;;;;;;5035641;28;20446;-85
2023/09/21 01:09:06;;;;;;;1.17;0.43;;;17.70;89.30;;;;;;5043125;28;20407;-84
2023/09/21 01:11:37;;;;;;;0.90;0.30;;;17.60;89.20;;;;;;5047188;28;20046;-84
2023/09/21 01:14:09;;;;;;;1.60;0.55;;;17.70;89.20;;;;;;5035270;28;20068;-84
2023/09/21 01:16:40;;;;;;;1.05;0.45;;;17.70;89.10;;;;;;5050887;28;20048;-84
2023/09/21 01:19:07;;;;;;;1.08;0.32;;;17.70;89.10;;;;;;5002800;28;20041;-84
2023/09/21 01:21:37;;;;;;;1.42;0.32;;;17.70;89.00;;;;;;5025781;28;20045;-84
2023/09/21 01:24:07;;;;;;;3.05;0.50;;;17.70;89.00;;;;;;5038494;28;20045;-84
2023/09/21 01:26:34;;;;;;;0.90;0.38;;;17.70;88.90;;;;;;5018825;28;20048;-84
2023/09/21 01:29:01;;;;;;;2.13;0.50;;;17.70;88.80;;;;;;5044747;28;20044;-85
2023/09/21 01:31:30;;;;;;;1.45;0.35;;;17.70;88.60;;;;;;5027582;28;20048;-84
2023/09/21 01:33:58;;;;;;;2.13;0.50;;;17.80;88.40;;;;;;5009160;28;20040;-84
2023/09/21 01:36:26;;;;;;;1.38;0.45;;;17.80;88.30;;;;;;5015925;28;20554;-84
2023/09/21 01:38:53;;;;;;;1.52;0.50;;;17.80;88.30;;;;;;5054482;28;20491;-85
2023/09/21 01:41:22;;;;;;;1.50;0.57;;;17.80;88.10;;;;;;5041677;28;20111;-85
2023/09/21 01:43:49;;;;;;;1.63;0.47;;;17.90;87.90;;;;;;5025614;28;20144;-85
2023/09/21 01:46:19;;;;;;;1.30;0.45;;;17.90;87.70;;;;;;5041548;28;20045;-85
2023/09/21 01:48:46;;;;;;;1.50;0.52;;;17.90;87.70;;;;;;5041704;28;20049;-85
2023/09/21 01:51:15;;;;;;;1.02;0.43;;;17.90;87.60;;;;;;5041122;28;20126;-84
2023/09/21 01:53:45;;;;;;;1.25;0.40;;;18.00;87.70;;;;;;5058243;28;20037;-85
2023/09/21 01:56:16;;;;;;;1.73;0.50;;;18.00;87.60;;;;;;5041022;28;20036;-82
2023/09/21 01:58:49;;;;;;;1.52;0.60;;;18.00;87.50;;;;;;5039866;28;20044;-83
2023/09/21 02:01:16;;;;;;;0.95;0.47;;;18.00;87.30;;;;;;5041284;28;20045;-82
2023/09/21 02:03:44;;;;;;;1.90;0.60;;;18.00;87.20;;;;;;5041190;28;20052;-82
2023/09/21 02:06:12;;;;;;;2.88;0.60;;;18.00;87.20;;;;;;5041448;28;20091;-82
2023/09/21 02:08:39;;;;;;;1.92;0.50;;;18.00;87.20;;;;;;5024988;28;20052;-82
2023/09/21 02:11:07;;;;;;;1.27;0.55;;;18.00;87.20;;;;;;5032478;28;20053;-82
2023/09/21 02:13:36;;;;;;;1.58;0.60;;;18.00;87.20;;;;;;5039545;28;20049;-82
2023/09/21 02:16:07;;;;;;;2.00;0.55;;;18.00;87.10;;;;;;5009166;28;20495;-83
2023/09/21 02:18:34;;;;;;;2.58;0.73;;;18.00;87.00;;;;;;5028288;28;20049;-83
2023/09/21 02:21:01;;;;;;;1.13;0.40;;;18.00;87.00;;;;;;5042191;28;20037;-83
2023/09/21 02:23:29;;;;;;;2.15;0.80;;;18.00;87.00;;;;;;5051467;28;20053;-82
2023/09/21 02:25:56;;;;;;;1.77;0.60;;;18.00;87.10;;;;;;4986997;28;20060;-83
2023/09/21 02:28:23;;;;;;;1.13;0.45;;;18.00;87.10;;;;;;5033924;28;20041;-82
2023/09/21 02:30:53;;;;;;;1.77;0.40;;;18.00;87.00;;;;;;5056194;28;20140;-82
2023/09/21 02:33:22;;;;;;;1.58;0.50;;;18.00;87.00;;;;;;5024418;28;20048;-82
2023/09/21 02:35:59;;;;;;;1.73;0.30;;;18.00;87.00;;;;;;5058749;28;20048;-82
2023/09/21 02:38:26;;;;;;;0.77;0.40;;;18.00;86.90;;;;;;5025154;28;20044;-82
2023/09/21 02:41:02;;;;;;;1.15;0.40;;;18.00;86.80;;;;;;5057230;28;20049;-83
2023/09/21 02:43:29;;;;;;;0.60;0.32;;;18.00;86.80;;;;;;5014847;28;20139;-82
2023/09/21 02:45:57;;;;;;;1.10;0.40;;;18.00;86.90;;;;;;5028791;28;20077;-82
2023/09/21 02:48:25;;;;;;;0.88;0.40;;;18.00;86.90;;;;;;5034980;28;20046;-83
2023/09/21 02:50:52;;;;;;;4.05;0.50;;;18.00;86.90;;;;;;5014899;28;20522;-83
2023/09/21 02:53:21;;;;;;;1.88;0.50;;;18.10;86.80;;;;;;5033371;28;20160;-82
2023/09/21 02:55:51;;;;;;;1.40;0.40;;;18.10;86.60;;;;;;5021703;28;20053;-82
2023/09/21 02:58:19;;;;;;;1.35;0.40;;;18.20;86.30;;;;;;5053743;28;20041;-82
2023/09/21 03:00:52;;;;;;;1.05;0.50;;;18.30;86.20;;;;;;5047640;28;20049;-82
2023/09/21 03:03:21;;;;;;;2.08;0.50;;;18.30;86.10;;;;;;5011531;28;20104;-83
2023/09/21 03:05:51;;;;;;;1.27;0.40;;;18.30;86.10;;;;;;5027890;28;20144;-82
2023/09/21 03:08:19;;;;;;;1.15;0.30;;;18.40;85.80;;;;;;5037580;28;20155;-83
2023/09/21 03:10:52;;;;;;;1.60;0.40;;;18.40;85.80;;;;;;5021257;28;20045;-82
2023/09/21 03:13:20;;;;;;;1.10;0.50;;;18.50;85.50;;;;;;5053523;28;20048;-82
2023/09/21 03:15:59;;;;;;;2.90;0.80;;;18.50;85.40;;;;;;5044178;28;20037;-82
2023/09/21 03:18:29;;;;;;;1.15;0.40;;;18.50;85.30;;;;;;5050328;28;20075;-82
2023/09/21 03:20:58;;;;;;;1.23;0.40;;;18.60;85.40;;;;;;5005401;28;20037;-82
2023/09/21 03:23:28;;;;;;;0.77;0.30;;;18.60;85.30;;;;;;5021080;28;20116;-82
2023/09/21 03:25:55;;;;;;;1.55;0.40;;;18.60;85.30;;;;;;5020172;28;20098;-82
2023/09/21 03:28:28;;;;;;;1.30;0.50;;;18.60;85.10;;;;;;5035202;28;20073;-82
2023/09/21 03:30:56;;;;;;;1.10;0.47;;;18.60;85.00;;;;;;5018019;28;20054;-82
2023/09/21 03:33:24;;;;;;;1.55;0.75;;;18.70;84.90;;;;;;5024814;28;20499;-82
2023/09/21 03:35:52;;;;;;;0.90;0.30;;;18.70;85.40;;;;;;5020228;28;20044;-82
2023/09/21 03:38:20;;;;;;;1.17;0.40;;;18.70;84.80;;;;;;5031151;28;20045;-82
2023/09/21 03:40:53;;;;;;;1.45;0.30;;;18.70;84.80;;;;;;5052403;28;20045;-82
2023/09/21 03:43:25;;;;;;;1.45;0.40;;;18.70;84.90;;;;;;5012710;28;20049;-82
2023/09/21 03:45:55;;;;;;;1.65;0.40;;;18.70;85.00;;;;;;5033503;28;20041;-82
2023/09/21 03:48:23;;;;;;;1.48;0.50;;;18.70;84.80;;;;;;5010800;28;20053;-82
2023/09/21 03:50:52;;;;;;;1.80;0.60;;;18.70;84.80;;;;;;5030082;28;20099;-82
2023/09/21 03:53:20;;;;;;;2.95;0.45;;;18.70;84.70;;;;;;5020332;28;20052;-82
2023/09/21 03:55:49;;;;;;;0.90;0.30;;;18.70;84.70;;;;;;5019364;28;20040;-86
2023/09/21 03:58:16;;;;;;;1.67;0.50;;;18.70;84.50;;;;;;5035310;28;20064;-86
2023/09/21 04:00:46;;;;;;;1.33;0.50;;;18.80;84.40;;;;;;5036415;28;20124;-86
2023/09/21 04:03:16;;;;;;;1.00;0.30;;;18.80;84.30;;;;;;5004280;28;20091;-86
2023/09/21 04:05:51;;;;;;;1.77;0.50;;;18.80;84.30;;;;;;5051831;28;20060;-86
2023/09/21 04:08:18;;;;;;;2.35;0.40;;;18.80;84.10;;;;;;5019999;28;20119;-86
2023/09/21 04:10:45;;;;;;;0.93;0.40;;;18.80;84.10;;;;;;5036482;28;20045;-86
2023/09/21 04:13:14;;;;;;;1.50;0.40;;;18.80;84.20;;;;;;5003263;28;20495;-86
2023/09/21 04:15:41;;;;;;;2.78;0.50;;;18.90;84.20;;;;;;5024417;28;20414;-86
2023/09/21 04:18:09;;;;;;;1.17;0.30;;;18.90;84.20;;;;;;5052743;28;20064;-86
2023/09/21 04:20:44;;;;;;;2.20;0.73;;;18.90;84.20;;;;;;5000736;28;20132;-86
2023/09/21 04:23:11;;;;;;;2.45;0.55;;;18.90;84.00;;;;;;4998614;28;20460;-86
2023/09/21 04:25:39;;;;;;;1.10;0.50;;;18.90;84.00;;;;;;5027477;28;20056;-86
2023/09/21 04:28:07;;;;;;;1.25;0.50;;;18.90;84.00;;;;;;5036142;28;20498;-86
2023/09/21 04:30:34;;;;;;;0.75;0.32;;;18.90;84.00;;;;;;5035871;28;20052;-86
2023/09/21 04:33:04;;;;;;;1.67;0.40;;;18.90;84.10;;;;;;5048401;28;20045;-86
2023/09/21 04:35:32;;;;;;;1.17;0.45;;;18.90;84.00;;;;;;5019723;28;20052;-85
2023/09/21 04:38:00;;;;;;;2.20;0.50;;;18.90;84.00;;;;;;5035842;28;20037;-85
2023/09/21 04:40:27;;;;;;;1.45;0.50;;;18.90;83.90;;;;;;5052307;28;20048;-84
2023/09/21 04:42:57;;;;;;;2.80;0.60;;;18.90;83.90;;;;;;5035843;28;20057;-83
2023/09/21 04:45:28;;;;;;;1.23;0.40;;;18.90;83.80;;;;;;5035787;28;20099;-83
2023/09/21 04:48:03;;;;;;;2.53;0.70;;;19.00;83.90;;;;;;5047667;28;20049;-83
2023/09/21 04:50:33;;;;;;;1.55;0.50;;;18.90;83.90;;;;;;5051469;28;20051;-83
2023/09/21 04:53:03;;;;;;;2.33;0.50;;;18.90;83.90;;;;;;5035184;28;20140;-82
2023/09/21 04:55:31;;;;;;;0.70;0.30;;;18.90;83.70;;;;;;5013505;28;20043;-82
2023/09/21 04:57:59;;;;;;;3.22;0.47;;;18.90;83.80;;;;;;5019465;28;20458;-83
2023/09/21 05:00:29;;;;;;;1.10;0.50;;;18.90;83.90;;;;;;5019475;28;20132;-83
2023/09/21 05:02:58;;;;;;;1.15;0.43;;;18.90;84.10;;;;;;5035164;28;20053;-83
2023/09/21 05:05:26;;;;;;;2.03;0.60;;;18.80;84.20;;;;;;5051372;28;20056;-83
2023/09/21 05:07:55;;;;;;;1.05;0.40;;;18.80;84.30;;;;;;5050955;28;20495;-82
2023/09/21 05:10:22;;;;;;;1.33;0.40;;;18.80;84.40;;;;;;5052045;28;20403;-85
2023/09/21 05:12:52;;;;;;;1.63;0.50;;;18.70;84.50;;;;;;5042313;28;20547;-86
2023/09/21 05:15:19;;;;;;;1.30;0.40;;;18.70;84.50;;;;;;5039966;28;20048;-86
2023/09/21 05:17:48;;;;;;;0.93;0.30;;;18.80;84.60;;;;;;5027101;28;20100;-86
2023/09/21 05:20:16;;;;;;;1.10;0.50;;;18.80;84.70;;;;;;5036308;28;20056;-86
2023/09/21 05:22:47;;;;;;;0.77;0.40;;;18.70;84.80;;;;;;5039703;28;20053;-86
2023/09/21 05:25:15;;;;;;;0.93;0.40;;;18.70;84.90;;;;;;5030562;28;20141;-86
2023/09/21 05:27:45;;;;;;;0.98;0.40;;;18.60;85.10;;;;;;5031208;28;20554;-86
2023/09/21 05:30:19;;;;;;;0.90;0.30;;;18.60;85.20;;;;;;5031084;28;20048;-86
2023/09/21 05:32:46;;;;;;;1.05;0.40;;;18.60;85.30;;;;;;5019468;28;20047;-86
2023/09/21 05:35:20;;;;;;;0.68;0.30;;;18.60;85.40;;;;;;5035149;28;20045;-86
2023/09/21 05:37:50;;;;;;;1.48;0.50;;;18.60;85.30;;;;;;5035328;28;20052;-86
2023/09/21 05:40:21;;;;;;;0.70;0.40;;;18.60;85.30;;;;;;5035164;28;20056;-86
2023/09/21 05:42:51;;;;;;;1.42;0.50;;;18.70;85.30;;;;;;5051412;28;20049;-85
2023/09/21 05:45:22;;;;;;;1.25;0.40;;;18.70;85.20;;;;;;5051259;28;20049;-86
2023/09/21 05:47:50;;;;;;;1.27;0.50;;;18.70;85.30;;;;;;5018532;28;20056;-85
2023/09/21 05:50:22;;;;;;;2.28;0.47;;;18.70;85.30;;;;;;5010083;28;20045;-86
2023/09/21 05:52:56;;;;;;;0.82;0.40;;;18.70;85.80;;;;;;5018743;28;20041;-86
2023/09/21 05:55:23;;;;;;;0.90;0.40;;;18.70;85.30;;;;;;5051264;28;20037;-86
2023/09/21 05:57:53;;;;;;;1.67;0.47;;;18.70;85.30;;;;;;5040870;28;20041;-86
2023/09/21 06:00:20;;;;;;;3.58;0.60;;;18.70;85.30;;;;;;5023493;28;20080;-86
2023/09/21 06:02:54;;;;;;;0.98;0.25;;;18.70;85.40;;;;;;5051243;28;20045;-86
2023/09/21 06:05:21;;;;;;;2.47;0.40;;;18.70;85.40;;;;;;5050917;28;20075;-83
2023/09/21 06:07:56;;;;;;;1.45;0.50;;;18.70;85.50;;;;;;5016409;28;20053;-83
2023/09/21 06:10:24;;;;;;;0.95;0.40;;;18.70;85.60;;;;;;5014325;28;20053;-83
2023/09/21 06:13:02;;;;;;;1.00;0.40;;;18.70;85.70;;;;;;5007322;28;20562;-82
2023/09/21 06:15:37;;;;;;;1.15;0.40;;;18.70;85.70;;;;;;5031454;28;20487;-83
2023/09/21 06:18:08;;;;;;;0.98;0.43;;;18.70;85.70;;;;;;5035876;28;20042;-83
2023/09/21 06:20:44;;;;;;;1.73;0.57;;;18.60;85.60;;;;;;5010670;28;20045;-83
2023/09/21 06:23:17;;;;;;;1.80;0.55;;;18.70;85.80;;;;;;5028893;28;20041;-83
2023/09/21 06:25:51;;;;;;;1.25;0.40;;;18.70;85.70;;;;;;5022595;28;20124;-86
2023/09/21 06:28:29;;;;;;;0.77;0.30;;;18.70;85.80;;;;;;5022164;28;20053;-86
2023/09/21 06:31:04;;;;;;;1.30;0.60;;;18.70;85.80;;;;;;5037841;28;20040;-86
2023/09/21 06:33:40;;;;;;;0.80;0.30;;;18.70;85.80;;;;;;5026799;28;20037;-86
2023/09/21 06:36:15;;;;;;;1.25;0.30;;;18.70;85.80;;;;;;5012029;28;20100;-86
2023/09/21 06:38:45;;;;;;;1.45;0.40;;;18.80;85.80;;;;;;5046480;28;20135;-85
2023/09/21 06:41:17;;;;;;;1.20;0.32;;;18.80;85.80;;;;;;5027059;28;20048;-86
2023/09/21 06:43:47;;;;;;;1.80;0.30;;;18.80;85.80;;;;;;5029107;28;20049;-86
2023/09/21 06:46:20;;;;;;;1.80;0.60;;;18.80;85.80;;;;;;5003955;28;20132;-86
2023/09/21 06:48:53;;;;;;;1.48;0.50;;;18.80;85.70;;;;;;5035961;28;20104;-86
2023/09/21 06:51:25;;;;;;;0.95;0.40;;;18.80;85.90;;;;;;5018447;28;20053;-86
2023/09/21 06:53:57;;;;;;;1.95;0.50;;;18.80;86.00;;;;;;4991913;28;20506;-86
2023/09/21 06:56:29;;;;;;;1.30;0.40;;;18.70;86.10;;;;;;5017690;28;20049;-86
2023/09/21 06:59:06;;;;;;;2.13;0.70;;;18.70;86.30;;;;;;5015224;28;20050;-85
2023/09/21 07:01:34;;;;;;;1.63;0.70;;;18.60;86.50;;;;;;5010290;28;20045;-86
2023/09/21 07:04:03;;;;;;;1.55;0.60;;;18.50;86.80;;;;;;5035136;28;20052;-86
2023/09/21 07:06:32;;;;;;;1.35;0.50;;;18.40;87.20;;;;;;5037683;28;20056;-86
2023/09/21 07:09:03;;;;;;;2.70;0.50;;;18.30;87.50;;;;;;5004987;28;20443;-86
2023/09/21 07:11:33;;;;;;;3.35;0.57;;;18.20;87.90;;;;;;5037886;28;20055;-86
2023/09/21 07:14:01;;;;;;;2.00;0.70;;;18.10;88.30;;;;;;5025285;28;20045;-86
2023/09/21 07:16:29;;;;;;;1.25;0.50;;;18.10;88.60;;;;;;5031845;28;20132;-86
2023/09/21 07:19:03;;;;;;;0.90;0.32;;;18.00;88.90;;;;;;5037371;28;20048;-86
2023/09/21 07:21:31;;;;;;;1.38;0.50;;;18.00;89.00;;;;;;5040874;28;20450;-86
2023/09/21 07:24:08;;;;;;;1.92;0.50;;;18.00;89.30;;;;;;5026634;28;20041;-86
2023/09/21 07:26:38;;;;;;;2.33;0.50;;;17.90;89.50;;;;;;5045968;28;20080;-86
2023/09/21 07:29:19;;;;;;;1.48;0.55;;;17.90;89.70;;;;;;5039572;28;20056;-85
2023/09/21 07:32:10;;;;;;;0.85;0.40;;;17.90;89.90;;;;;;5011636;28;20053;-83
2023/09/21 07:34:37;;;;;;;1.35;0.40;;;17.90;90.00;;;;;;5036651;28;20107;-82
2023/09/21 07:37:12;;;;;;;3.00;0.50;;;17.90;90.10;;;;;;5036983;28;20135;-82
2023/09/21 07:39:39;;;;;;;1.30;0.32;;;17.90;90.10;;;;;;5021066;28;20095;-82
2023/09/21 07:42:07;;;;;;;1.92;0.60;;;17.90;90.10;;;;;;5036737;28;20049;-82
2023/09/21 07:44:35;;;;;;;1.52;0.70;;;17.90;90.20;;;;;;5050756;28;20147;-83
2023/09/21 07:47:02;;;;;;;1.17;0.40;;;17.90;90.30;;;;;;5020079;28;20124;-83
2023/09/21 07:49:29;;;;;;;0.93;0.40;;;17.90;90.30;;;;;;5033101;28;20045;-83
2023/09/21 07:51:59;;;;;;;1.27;0.50;;;18.00;90.40;;;;;;5052248;28;20045;-81
2023/09/21 07:54:27;;;;;;;0.98;0.40;;;18.00;90.40;;;;;;5053813;28;20049;-82
2023/09/21 07:57:03;;;;;;;1.65;0.40;;;18.00;90.50;;;;;;5053142;28;20479;-82
2023/09/21 07:59:31;;;;;;;1.77;0.68;;;18.00;90.60;;;;;;5036190;28;20061;-89
2023/09/21 08:02:00;;;;;;;1.42;0.55;;;18.00;90.60;;;;;;5054070;28;20049;-91
2023/09/21 08:04:28;;;;;;;1.00;0.60;;;18.00;90.70;;;;;;5037290;28;20049;-90
2023/09/21 08:06:55;;;;;;;1.48;0.60;;;17.90;90.80;;;;;;5035421;28;20135;-88
2023/09/21 08:09:24;;;;;;;1.88;0.70;;;17.90;90.90;;;;;;5039715;28;20057;-89
2023/09/21 08:12:00;;;;;;;1.58;0.70;;;17.80;91.00;;;;;;5050496;28;20490;-91
2023/09/21 08:14:29;;;;;;;0.88;0.50;;;17.80;91.10;;;;;;5043997;28;20041;-90
2023/09/21 08:16:58;;;;;;;1.88;0.70;;;17.70;91.20;;;;;;5018904;28;20047;-92
2023/09/21 08:19:26;;;;;;;1.63;0.40;;;17.70;91.30;;;;;;5036709;28;20384;-87
2023/09/21 08:21:53;;;;;;;1.17;0.50;;;17.70;91.30;;;;;;5004062;28;20565;-92
2023/09/21 08:24:20;;;;;;;1.67;0.50;;;17.70;91.40;;;;;;5036743;28;20049;-88
2023/09/21 08:26:47;;;;;;;1.42;0.50;;;17.80;91.50;;;;;;5043286;28;20135;-90
2023/09/21 08:29:14;;;;;;;1.33;0.50;;;17.80;91.50;;;;;;5037045;28;20045;-89
2023/09/21 08:31:42;;;;;;;1.08;0.55;;;17.70;91.60;;;;;;5036611;28;20063;-94
2023/09/21 08:34:12;;;;;;;1.35;0.70;;;17.80;91.60;;;;;;5037228;28;20037;-90
2023/09/21 08:36:44;;;;;;;0.93;0.40;;;17.80;91.70;;;;;;5036861;28;20037;-95
2023/09/21 08:39:18;;;;;;;1.83;0.80;;;17.80;91.80;;;;;;5037009;28;20045;-94
2023/09/21 08:41:49;;;;;;;1.65;0.60;;;17.70;91.80;;;;;;5036350;28;20080;-95
2023/09/21 08:44:19;;;;;;;2.17;0.80;;;17.70;91.80;;;;;;5029004;28;20049;-89
2023/09/21 08:46:47;;;;;;;1.80;0.70;;;17.70;91.90;;;;;;5016672;28;20522;-88
2023/09/21 08:49:15;;;;;;;1.42;0.60;;;17.70;92.30;;;;;;5039172;28;20076;-90
2023/09/21 08:51:47;;;;;;;2.63;0.65;;;17.70;92.10;;;;;;5032796;28;20550;-93
2023/09/21 08:54:23;;;;;;;1.10;0.45;;;17.70;92.20;;;;;;5005552;28;20045;-92
2023/09/21 08:56:55;;;;;;;1.60;0.60;;;17.70;92.20;;;;;;5019457;28;20131;-84
2023/09/21 08:59:24;;;;;;;2.00;0.80;;;17.70;92.20;;;;;;5042351;28;20048;-84
2023/09/21 09:01:52;;;;;;;1.70;0.80;;;17.70;92.30;;;;;;5035249;28;20040;-85
2023/09/21 09:04:20;;;;;;;2.08;0.70;;;17.60;92.40;;;;;;5014831;28;20410;-83
2023/09/21 09:06:48;;;;;;;2.42;0.75;;;17.70;92.50;;;;;;5052921;28;20049;-83
2023/09/21 09:09:15;;;;;;;2.03;0.70;;;17.70;92.50;;;;;;5051431;28;20057;-83
2023/09/21 09:11:45;;;;;;;2.55;0.82;;;17.70;92.60;;;;;;5022644;28;20037;-84
2023/09/21 09:14:14;;;;;;;2.65;0.88;;;17.70;92.70;;;;;;4993836;28;20052;-83
2023/09/21 09:16:42;;;;;;;1.85;0.82;;;17.70;92.80;;;;;;5030948;28;20454;-84
2023/09/21 09:19:13;;;;;;;3.25;0.82;;;17.70;92.90;;;;;;5034859;28;20041;-84
2023/09/21 09:21:41;;;;;;;1.77;0.75;;;17.60;92.90;;;;;;5035346;28;20037;-84
2023/09/21 09:24:08;;;;;;;1.88;0.73;;;17.70;92.90;;;;;;5018539;28;20060;-82
2023/09/21 09:26:35;;;;;;;3.58;0.70;;;17.70;93.00;;;;;;5030154;28;20103;-81
2023/09/21 09:29:04;;;;;;;2.17;0.95;;;17.70;93.00;;;;;;5024441;28;20041;-80
2023/09/21 09:31:32;;;;;;;2.33;1.30;;;17.70;93.00;;;;;;5034478;28;20053;-80
2023/09/21 09:34:04;;;;;;;2.63;0.90;;;17.70;93.10;;;;;;5023692;28;20076;-81
2023/09/21 09:36:41;;;;;;;3.25;0.85;;;17.70;93.20;;;;;;5019668;28;20045;-80
2023/09/21 09:39:14;;;;;;;2.70;1.27;;;17.70;93.20;;;;;;5029362;28;20052;-81
2023/09/21 09:41:42;;;;;;;2.70;1.10;;;17.70;93.20;;;;;;5014934;28;20419;-81
2023/09/21 09:44:11;;;;;;;2.30;1.30;;;17.70;93.40;;;;;;5028733;28;20053;-83
2023/09/21 09:46:42;;;;;;;2.78;1.42;;;17.60;93.70;;;;;;5034750;28;20148;-84
2023/09/21 09:49:10;;;;;;;2.80;1.50;;;17.60;93.50;;;;;;5051099;28;20122;-84
2023/09/21 09:51:44;;;;;;;3.25;1.50;;;17.60;93.70;;;;;;5051189;28;20053;-83
2023/09/21 09:54:16;;;;;;;3.70;1.50;;;17.50;94.10;;;;;;5038367;28;20041;-85
2023/09/21 09:56:44;;;;;;;3.65;1.40;;;17.40;94.00;;;;;;5043019;28;20491;-85
2023/09/21 09:59:12;;;;;;;3.15;1.00;;;17.30;94.10;;;;;;5025769;28;20053;-85
2023/09/21 10:01:41;;;;;;;3.22;1.05;;;17.20;94.20;;;;;;5029290;28;20060;-85
2023/09/21 10:04:08;;;;;;;2.08;0.90;;;17.20;94.20;;;;;;5009032;28;20045;-84
2023/09/21 10:06:37;;;;;;;2.90;1.30;;;17.30;94.20;;;;;;5034959;28;20310;-85
2023/09/21 10:09:13;;;;;;;3.22;0.90;;;17.30;94.20;;;;;;5046916;28;20057;-84
2023/09/21 10:11:51;;;;;;;2.17;0.93;;;17.30;94.20;;;;;;5022213;28;20064;-85
2023/09/21 10:14:23;;;;;;;1.30;0.60;;;17.30;94.20;;;;;;5055090;28;20033;-92
2023/09/21 10:16:56;;;;;;;1.50;0.60;;;17.40;94.10;;;;;;5037954;28;20048;-90
2023/09/21 10:19:25;;;;;;;1.63;0.70;;;17.40;94.10;;;;;;5019398;28;20095;-91
2023/09/21 10:21:56;;;;;;;1.10;0.50;;;17.40;94.10;;;;;;5046719;28;20129;-92
2023/09/21 10:24:26;;;;;;;1.23;0.50;;;17.40;94.10;;;;;;5039220;28;20131;-92
2023/09/21 10:26:58;;;;;;;1.30;0.50;;;17.50;94.10;;;;;;5022755;28;20479;-88
2023/09/21 10:29:40;;;;;;;1.02;0.50;;;17.50;94.10;;;;;;5039432;28;20147;-90
2023/09/21 10:32:07;;;;;;;1.17;0.60;;;17.60;94.00;;;;;;5044858;28;20073;-90
2023/09/21 10:34:34;;;;;;;1.67;0.45;;;17.50;94.10;;;;;;5024161;28;20112;-92
2023/09/21 10:37:10;;;;;;;1.23;0.60;;;17.50;94.00;;;;;;5037081;28;20132;-91
2023/09/21 10:39:39;;;;;;;1.10;0.40;;;17.50;94.10;;;;;;5055807;28;20040;-92
2023/09/21 10:42:07;;;;;;;0.80;0.30;;;17.50;94.10;;;;;;5035056;28;20495;-93
2023/09/21 10:44:56;;;;;;;1.25;0.40;;;17.50;94.10;;;;;;5035958;28;20104;-93
2023/09/21 10:47:29;;;;;;;0.93;0.40;;;17.60;94.00;;;;;;5019475;28;20046;-93
2023/09/21 10:50:04;;;;;;;1.13;0.40;;;17.70;94.00;;;;;;5019256;28;20107;-93
2023/09/21 10:52:31;;;;;;;1.00;0.35;;;17.70;94.00;;;;;;5035307;28;20053;-93
2023/09/21 10:54:59;;;;;;;1.13;0.30;;;17.70;93.90;;;;;;5019025;28;20041;-90
2023/09/21 10:57:30;;;;;;;0.50;0.20;;;17.80;93.80;;;;;;5019551;28;20141;-94
2023/09/21 11:00:00;;;;;;;1.05;0.38;;;18.00;93.70;;;;;;5039652;28;20039;-94
2023/09/21 11:02:40;;;;;;;0.60;0.20;;;18.20;93.50;;;;;;5007627;28;20050;-93
2023/09/21 11:05:08;;;;;;;0.45;0.30;;;18.30;93.40;;;;;;5035319;28;20092;-88
2023/09/21 11:07:36;;;;;;;1.02;0.30;;;18.40;93.40;;;;;;5034474;28;20045;-86
2023/09/21 11:10:06;;;;;;;1.27;0.40;;;18.50;93.20;;;;;;5035020;28;20049;-94
2023/09/21 11:12:34;;;;;;;0.93;0.40;;;18.60;93.10;;;;;;5021772;28;20048;-89
2023/09/21 11:15:03;;;;;;;1.40;0.50;;;18.60;93.10;;;;;;4997246;28;20049;-87
2023/09/21 11:17:30;;;;;;;0.75;0.30;;;18.60;93.20;;;;;;5038243;28;20052;-93
2023/09/21 11:20:43;;;;;;;1.13;0.43;;;18.60;93.20;;;;;;5054974;28;20077;-85
2023/09/21 11:23:14;;;;;;;0.82;0.40;;;18.80;93.20;;;;;;5016247;28;20096;-88
2023/09/21 11:25:52;;;;;;;0.75;0.50;;;18.90;93.10;;;;;;5011735;28;20076;-92
2023/09/21 11:28:59;;;;;;;0.77;0.40;;;19.00;93.00;;;;;;5005615;28;20073;-88
2023/09/21 11:31:34;;;;;;;1.33;0.40;;;19.10;92.90;;;;;;5034709;28;20076;-90
2023/09/21 11:34:10;;;;;;;1.02;0.50;;;19.10;92.90;;;;;;5021337;28;20049;-93
2023/09/21 11:36:49;;;;;;;2.35;0.68;;;19.10;92.90;;;;;;5025484;28;20048;-94
2023/09/21 11:39:29;;;;;;;1.80;0.75;;;19.20;93.00;;;;;;5024958;28;20044;-91
2023/09/21 11:41:57;;;;;;;2.45;0.80;;;19.20;93.00;;;;;;5008923;28;20041;-85
2023/09/21 11:44:29;;;;;;;1.90;0.90;;;19.20;93.00;;;;;;5017559;28;20049;-91
2023/09/21 11:46:57;;;;;;;1.70;0.60;;;19.20;92.90;;;;;;5054310;28;20045;-91
2023/09/21 11:49:44;;;;;;;3.15;1.20;;;19.20;92.90;;;;;;5054223;28;20167;-93
2023/09/21 11:52:15;;;;;;;2.40;0.82;;;19.00;93.00;;;;;;5037720;28;20084;-93
2023/09/21 11:54:44;;;;;;;1.30;0.60;;;18.60;93.30;;;;;;5037407;28;20045;-92
2023/09/21 11:57:11;;;;;;;0.80;0.40;;;18.40;93.60;;;;;;5037610;28;20479;-92
2023/09/21 11:59:45;;;;;;;1.42;0.50;;;18.20;93.70;;;;;;5053706;28;20529;-89
2023/09/21 12:02:17;;;;;;;1.70;0.40;;;18.10;93.80;;;;;;5048307;28;20046;-85
2023/09/21 12:04:49;;;;;;;1.95;0.73;;;18.00;94.00;;;;;;5016544;28;20140;-95
2023/09/21 12:07:16;;;;;;;1.05;0.38;;;18.00;94.10;;;;;;5021896;28;20114;-91
2023/09/21 12:09:46;;;;;;;0.95;0.40;;;17.90;94.00;;;;;;5037221;28;20048;-88
2023/09/21 12:12:13;;;;;;;1.08;0.52;;;17.90;94.00;;;;;;5037657;28;20091;-91
2023/09/21 12:14:42;;;;;;;0.93;0.43;;;17.80;94.10;;;;;;5019307;28;20069;-91
2023/09/21 12:17:26;;;;;;;1.17;0.40;;;17.60;94.20;;;;;;4997524;28;20052;-95
2023/09/21 12:19:53;;;;;;;1.30;0.40;;;17.30;94.40;;;;;;4998281;28;20053;-94
2023/09/21 12:22:20;;;;;;;1.08;0.40;;;17.10;94.70;;;;;;4982793;28;20046;-91
2023/09/21 12:24:54;;;;;;;1.25;0.60;;;17.00;94.80;;;;;;5039755;28;20049;-89
2023/09/21 12:27:43;;;;;;;0.73;0.28;;;16.90;94.90;;;;;;5052570;28;20059;-88
2023/09/21 12:30:21;;;;;;;1.00;0.28;;;16.90;94.90;;;;;;5036245;28;20045;-91
2023/09/21 12:32:49;;;;;;;1.05;0.40;;;16.80;94.90;;;;;;5042256;28;20149;-90
2023/09/21 12:35:25;;;;;;;1.88;0.40;;;16.80;95.00;;;;;;5017408;28;20045;-93
2023/09/21 12:37:52;;;;;;;1.17;0.40;;;16.70;95.00;;;;;;5018197;28;20140;-89
2023/09/21 12:40:22;;;;;;;0.82;0.35;;;16.50;95.20;;;;;;5027833;28;20040;-91
2023/09/21 12:42:49;;;;;;;1.27;0.40;;;16.40;95.30;;;;;;5037461;28;20049;-92
2023/09/21 12:45:16;;;;;;;0.50;0.20;;;16.30;95.30;;;;;;5037607;28;20056;-93
2023/09/21 12:47:49;;;;;;;0.95;0.40;;;16.30;95.40;;;;;;5036957;28;20155;-88
2023/09/21 12:50:22;;;;;;;0.73;0.20;;;16.20;95.50;;;;;;5014381;28;20057;-87
2023/09/21 12:53:05;;;;;;;0.70;0.20;;;16.20;95.50;;;;;;5020661;28;20061;-90
2023/09/21 12:55:41;;;;;;;0.45;0.20;;;16.10;95.70;;;;;;5017094;28;20061;-88
2023/09/21 12:58:14;;;;;;;1.05;0.20;;;16.10;95.60;;;;;;5019775;28;20044;-87
2023/09/21 13:01:20;;;;;;;0.77;0.20;;;16.10;95.60;;;;;;5035196;28;20075;-87
2023/09/21 13:03:50;;;;;;;0.35;0.10;;;16.10;95.60;;;;;;4997080;28;20049;-81
2023/09/21 13:06:17;;;;;;;0.52;0.13;;;16.10;95.60;;;;;;5046050;28;20534;-81